Arena, Wisconsin
Current Conditions -  °F | °C
As of 11:56 AM on Friday 31 Oct 2014 (Local Time) from KLNR Reporting Station
Scattered Clouds Scattered Clouds  
Wind Chill: 33°   Ceiling: Unl
Heat Index: 42°   Visibility: 10mi
Dew Point: 17°   Wind: 22mph
Humidity: 37%   Direction: 10°N
Pressure: 30.38"   Gusts: 31mph
Location:  43.17°N, 89.91°W
Report Text: KLNR 311656Z AUTO 01019G27KT 10SM SCT050 06/M08 A3038 RMK AO2 PK WND 36034/1611 SLP288 T00561083
Loading
Personal Weather Stations






























Interactive Weather Map
Tropical Storm Tracking
New forecast layout! Learn more

10-Day Weather Forecast

Advertisements
Track Severe Weather on mobile